createdAt,value
2022-08-16T00:01:24.606Z,21.50
2022-08-16T00:03:54.406Z,21.50
2022-08-16T00:06:22.753Z,21.50
2022-08-16T00:08:52.375Z,21.40
2022-08-16T00:11:22.229Z,21.40
2022-08-16T00:13:54.088Z,21.40
2022-08-16T00:17:05.689Z,21.50
2022-08-16T00:19:14.802Z,21.40
2022-08-16T00:21:44.075Z,21.40
2022-08-16T00:24:13.689Z,21.40
2022-08-16T00:27:03.630Z,21.40
2022-08-16T00:29:31.481Z,21.40
2022-08-16T00:32:06.181Z,21.40
2022-08-16T00:34:44.699Z,21.40
2022-08-16T00:37:24.689Z,21.40
2022-08-16T00:39:58.167Z,21.40
2022-08-16T00:42:31.400Z,21.40
2022-08-16T00:45:08.733Z,21.30
2022-08-16T00:47:48.909Z,21.30
2022-08-16T00:50:19.200Z,21.30
2022-08-16T00:52:50.854Z,21.30
2022-08-16T00:55:23.877Z,21.30
2022-08-16T00:57:59.841Z,21.30
2022-08-16T01:00:31.806Z,21.30
2022-08-16T01:03:02.846Z,21.20
2022-08-16T01:05:32.883Z,21.30
2022-08-16T01:08:02.626Z,21.30
2022-08-16T01:10:50.973Z,21.30
2022-08-16T01:13:24.034Z,21.30
2022-08-16T01:16:10.819Z,21.30
2022-08-16T01:18:44.246Z,21.40
2022-08-16T01:21:36.819Z,21.30
2022-08-16T01:24:52.502Z,21.30
2022-08-16T01:27:19.318Z,21.40
2022-08-16T01:30:20.318Z,21.30
2022-08-16T01:33:01.605Z,21.30
2022-08-16T01:35:56.137Z,21.30
2022-08-16T01:38:33.530Z,21.30
2022-08-16T01:41:23.845Z,21.30
2022-08-16T01:43:53.589Z,21.30
2022-08-16T01:46:39.153Z,21.30
2022-08-16T01:49:15.946Z,21.30
2022-08-16T01:51:52.141Z,21.30
2022-08-16T01:54:31.089Z,21.30
2022-08-16T01:57:01.794Z,21.30
2022-08-16T01:59:29.441Z,21.30
2022-08-16T02:02:00.432Z,21.30
2022-08-16T02:04:48.725Z,21.30
2022-08-16T02:07:18.791Z,21.30
2022-08-16T02:09:58.701Z,21.30
2022-08-16T02:12:49.642Z,21.20
2022-08-16T02:15:25.461Z,21.30
2022-08-16T02:17:58.274Z,21.30
2022-08-16T02:20:28.290Z,21.20
2022-08-16T02:22:57.994Z,21.20
2022-08-16T02:25:50.914Z,21.20
2022-08-16T02:28:19.385Z,21.10
2022-08-16T02:30:51.045Z,21.10
2022-08-16T02:33:24.343Z,21.00
2022-08-16T02:35:58.387Z,21.00
2022-08-16T02:38:29.101Z,20.90
2022-08-16T02:41:09.574Z,21.00
2022-08-16T02:43:38.666Z,21.00
2022-08-16T02:46:08.042Z,21.00
2022-08-16T02:48:39.010Z,21.00
2022-08-16T02:51:10.650Z,21.00
2022-08-16T02:53:43.683Z,21.10
2022-08-16T02:56:18.209Z,21.10
2022-08-16T02:58:50.757Z,21.10
2022-08-16T03:01:24.710Z,21.10
2022-08-16T03:04:29.686Z,21.20
2022-08-16T03:06:44.958Z,21.20
2022-08-16T03:09:16.420Z,21.20
2022-08-16T03:11:45.182Z,21.20
2022-08-16T03:14:20.820Z,21.20
2022-08-16T03:16:59.706Z,21.30
2022-08-16T03:19:48.433Z,21.30
2022-08-16T03:22:28.425Z,21.30
2022-08-16T03:25:01.126Z,21.30
2022-08-16T03:27:32.352Z,21.30
2022-08-16T03:30:16.362Z,21.30
2022-08-16T03:32:48.008Z,21.30
2022-08-16T03:35:20.823Z,21.30
2022-08-16T03:38:03.142Z,21.30
2022-08-16T03:40:34.223Z,21.30
2022-08-16T03:43:20.048Z,21.30
2022-08-16T03:45:52.415Z,21.30
2022-08-16T03:48:36.425Z,21.30
2022-08-16T03:51:08.616Z,21.30
2022-08-16T03:53:37.873Z,21.40
2022-08-16T03:56:07.969Z,21.40
2022-08-16T03:58:51.115Z,21.40
2022-08-16T04:01:22.484Z,21.40
2022-08-16T04:03:52.898Z,21.40
2022-08-16T04:06:23.439Z,21.40
2022-08-16T04:08:51.911Z,21.50
2022-08-16T04:11:23.703Z,21.50
2022-08-16T04:14:01.337Z,21.50
2022-08-16T04:16:37.124Z,21.50
2022-08-16T04:19:06.028Z,21.60
2022-08-16T04:21:36.099Z,21.60
2022-08-16T04:24:13.168Z,21.60
2022-08-16T04:26:42.578Z,21.60
2022-08-16T04:29:23.223Z,21.70
2022-08-16T04:31:56.299Z,21.70
2022-08-16T04:34:30.999Z,21.70
2022-08-16T04:37:01.298Z,21.80
2022-08-16T04:39:37.127Z,21.80
2022-08-16T04:42:25.966Z,21.80
2022-08-16T04:44:56.064Z,21.80
2022-08-16T04:47:35.709Z,21.90
2022-08-16T04:50:14.469Z,21.90
2022-08-16T04:52:48.978Z,21.90
2022-08-16T04:55:38.021Z,21.90
2022-08-16T04:58:43.611Z,22.00
2022-08-16T05:00:55.353Z,22.00
2022-08-16T05:03:26.215Z,22.00
2022-08-16T05:05:59.051Z,22.00
2022-08-16T05:08:32.948Z,22.10
2022-08-16T05:11:08.342Z,22.10
2022-08-16T05:13:41.471Z,22.20
2022-08-16T05:16:21.441Z,22.20
2022-08-16T05:18:51.885Z,22.20
2022-08-16T05:21:21.511Z,22.30
2022-08-16T05:23:55.886Z,22.30
2022-08-16T05:26:30.806Z,22.30
2022-08-16T05:29:03.541Z,22.40
2022-08-16T05:31:33.154Z,22.40
2022-08-16T05:34:04.620Z,22.50
2022-08-16T05:36:36.718Z,22.50
2022-08-16T05:39:09.523Z,22.50
2022-08-16T05:41:44.944Z,22.50
2022-08-16T05:44:23.033Z,22.60
2022-08-16T05:46:56.175Z,22.60
2022-08-16T05:49:23.752Z,22.70
2022-08-16T05:51:52.314Z,22.70
2022-08-16T05:54:25.759Z,22.70
2022-08-16T05:56:56.060Z,22.80
2022-08-16T05:59:26.947Z,22.80
2022-08-16T06:01:55.607Z,22.80
2022-08-16T06:04:36.402Z,22.80
2022-08-16T06:07:09.538Z,22.90
2022-08-16T06:09:59.728Z,22.90
2022-08-16T06:12:29.744Z,23.00
2022-08-16T06:15:07.747Z,23.00
2022-08-16T06:17:42.363Z,23.10
2022-08-16T06:20:34.717Z,23.10
2022-08-16T06:23:17.143Z,23.20
2022-08-16T06:25:53.025Z,23.20
2022-08-16T06:28:36.377Z,23.20
2022-08-16T06:31:06.680Z,23.20
2022-08-16T06:33:41.244Z,23.30
2022-08-16T06:36:14.030Z,23.30
2022-08-16T06:38:56.109Z,23.40
2022-08-16T06:41:27.403Z,23.40
2022-08-16T06:43:56.509Z,23.40
2022-08-16T06:46:39.470Z,23.50
2022-08-16T06:49:10.932Z,23.50
2022-08-16T06:51:46.375Z,23.60
2022-08-16T06:54:17.984Z,23.70
2022-08-16T06:56:46.565Z,23.70
2022-08-16T06:59:14.762Z,23.80
2022-08-16T07:01:54.599Z,23.90
2022-08-16T07:04:32.832Z,24.00
2022-08-16T07:07:06.268Z,24.10
2022-08-16T07:09:39.041Z,24.20
2022-08-16T07:12:08.803Z,24.30
2022-08-16T07:14:37.121Z,24.40
2022-08-16T07:17:08.404Z,24.50
2022-08-16T07:20:03.106Z,24.60
2022-08-16T07:22:38.816Z,24.70
2022-08-16T07:25:16.660Z,24.70
2022-08-16T07:27:47.122Z,24.70
2022-08-16T07:30:38.084Z,24.80
2022-08-16T07:33:07.190Z,24.80
2022-08-16T07:35:34.517Z,24.90
2022-08-16T07:38:04.820Z,24.80
2022-08-16T07:40:59.349Z,24.80
2022-08-16T07:43:23.113Z,24.70
2022-08-16T07:45:53.465Z,24.80
2022-08-16T07:48:24.138Z,24.70
2022-08-16T07:50:55.837Z,24.70
2022-08-16T07:53:29.190Z,24.70
2022-08-16T07:56:00.454Z,24.70
2022-08-16T07:58:34.858Z,24.90
2022-08-16T08:01:10.993Z,24.90
2022-08-16T08:03:48.486Z,25.00
2022-08-16T08:06:24.870Z,25.00
2022-08-16T08:08:57.446Z,25.20
2022-08-16T08:11:29.553Z,25.20
2022-08-16T08:14:03.046Z,25.30
2022-08-16T08:16:33.395Z,25.30
2022-08-16T08:19:04.599Z,25.50
2022-08-16T08:21:59.087Z,25.50
2022-08-16T08:24:31.497Z,25.50
2022-08-16T08:27:04.021Z,25.50
2022-08-16T08:29:37.636Z,25.60
2022-08-16T08:32:57.449Z,25.70
2022-08-16T08:35:03.256Z,25.60
2022-08-16T08:37:55.625Z,25.60
2022-08-16T08:40:26.596Z,25.60
2022-08-16T08:43:00.313Z,25.70
2022-08-16T08:45:48.277Z,25.80
2022-08-16T08:48:32.903Z,25.80
2022-08-16T08:51:08.683Z,25.80
2022-08-16T08:53:38.142Z,25.70
2022-08-16T08:56:22.812Z,25.60
2022-08-16T08:58:59.157Z,25.50
2022-08-16T09:01:36.479Z,25.40
2022-08-16T09:04:14.621Z,25.30
2022-08-16T09:06:46.058Z,25.30
2022-08-16T09:09:17.148Z,25.30
2022-08-16T09:11:53.471Z,25.40
2022-08-16T09:14:33.173Z,25.50
2022-08-16T09:17:11.788Z,25.50
2022-08-16T09:19:42.826Z,25.40
2022-08-16T09:22:19.992Z,25.30
2022-08-16T09:24:52.573Z,25.30
2022-08-16T09:27:23.560Z,25.20
2022-08-16T09:29:59.738Z,25.10
2022-08-16T09:32:32.207Z,25.10
2022-08-16T09:35:01.647Z,25.10
2022-08-16T09:37:36.814Z,25.00
2022-08-16T09:40:32.472Z,24.90
2022-08-16T09:42:59.485Z,24.90
2022-08-16T09:45:39.171Z,24.80
2022-08-16T09:48:09.119Z,24.70
2022-08-16T09:50:39.830Z,24.70
2022-08-16T09:53:16.469Z,24.70
2022-08-16T09:55:49.501Z,24.70
2022-08-16T09:58:37.747Z,24.60
2022-08-16T10:01:11.855Z,24.60
2022-08-16T10:04:02.529Z,24.60
2022-08-16T10:06:33.739Z,24.60
2022-08-16T10:09:08.288Z,24.50
2022-08-16T10:12:11.747Z,24.60
2022-08-16T10:14:46.234Z,24.60
2022-08-16T10:17:14.695Z,24.60
2022-08-16T10:19:43.254Z,24.60
2022-08-16T10:22:12.938Z,24.70
2022-08-16T10:24:56.030Z,24.90
2022-08-16T10:27:45.625Z,25.20
2022-08-16T10:30:24.754Z,25.50
2022-08-16T10:32:54.578Z,25.90
2022-08-16T10:35:24.547Z,26.20
2022-08-16T10:38:01.382Z,26.50
2022-08-16T10:40:31.045Z,26.50
2022-08-16T10:43:00.722Z,26.30
2022-08-16T10:45:36.469Z,26.30
2022-08-16T10:48:27.438Z,26.30
2022-08-16T10:51:00.213Z,26.40
2022-08-16T10:53:32.914Z,26.50
2022-08-16T10:56:52.915Z,26.70
2022-08-16T10:59:29.332Z,26.70
2022-08-16T11:02:56.709Z,26.90
2022-08-16T11:11:01.601Z,27.10
2022-08-16T11:15:57.621Z,27.20
2022-08-16T11:18:48.629Z,27.30
2022-08-16T11:21:28.454Z,27.40
2022-08-16T11:23:59.614Z,27.50
2022-08-16T11:26:28.718Z,27.60
2022-08-16T11:29:14.065Z,27.70
2022-08-16T11:31:45.834Z,27.70
2022-08-16T11:34:21.935Z,27.60
2022-08-16T11:36:53.938Z,27.50
2022-08-16T11:39:30.722Z,27.40
2022-08-16T11:42:00.494Z,27.20
2022-08-16T11:44:53.057Z,26.90
2022-08-16T11:47:18.095Z,26.70
2022-08-16T11:49:48.186Z,26.60
2022-08-16T11:52:17.883Z,26.60
2022-08-16T11:54:56.923Z,26.50
2022-08-16T11:57:29.786Z,26.40
2022-08-16T12:00:00.838Z,26.50
2022-08-16T12:02:31.851Z,26.60
2022-08-16T12:05:01.030Z,26.60
2022-08-16T12:07:29.494Z,26.60
2022-08-16T12:10:03.048Z,26.60
2022-08-16T12:12:30.832Z,26.50
2022-08-16T12:15:02.430Z,26.40
2022-08-16T12:17:32.535Z,26.30
2022-08-16T12:20:05.124Z,26.40
2022-08-16T12:22:37.292Z,26.40
2022-08-16T12:25:07.505Z,26.50
2022-08-16T12:27:39.386Z,26.50
2022-08-16T12:30:19.821Z,26.40
2022-08-16T12:33:02.926Z,26.40
2022-08-16T12:35:33.957Z,26.40
2022-08-16T12:38:38.112Z,26.30
2022-08-16T12:40:55.688Z,26.30
2022-08-16T12:43:25.974Z,26.40
2022-08-16T12:45:59.708Z,26.60
2022-08-16T12:48:52.773Z,26.70
2022-08-16T12:51:25.245Z,27.00
2022-08-16T12:54:04.228Z,27.30
2022-08-16T12:56:38.651Z,27.60
2022-08-16T12:59:13.204Z,27.70
2022-08-16T13:01:50.638Z,27.80
2022-08-16T13:04:33.197Z,27.80
2022-08-16T13:07:04.561Z,27.70
2022-08-16T13:09:44.923Z,27.80
2022-08-16T13:12:19.192Z,27.80
2022-08-16T13:14:47.695Z,27.80
2022-08-16T13:17:26.178Z,27.90
2022-08-16T13:20:11.135Z,27.80
2022-08-16T13:22:42.887Z,27.80
2022-08-16T13:25:20.914Z,27.80
2022-08-16T13:28:02.308Z,27.90
2022-08-16T13:30:53.249Z,27.90
2022-08-16T13:33:29.822Z,27.90
2022-08-16T13:36:00.910Z,28.00
2022-08-16T13:38:37.243Z,28.00
2022-08-16T13:41:12.419Z,28.10
2022-08-16T13:43:42.160Z,28.20
2022-08-16T13:46:11.005Z,28.20
2022-08-16T13:48:44.174Z,28.20
2022-08-16T13:51:18.061Z,28.10
2022-08-16T13:53:49.579Z,27.90
2022-08-16T13:56:25.285Z,27.80
2022-08-16T13:58:56.413Z,27.70
2022-08-16T14:01:25.493Z,27.70
2022-08-16T14:03:55.881Z,27.80
2022-08-16T14:06:25.006Z,27.80
2022-08-16T14:09:06.234Z,27.70
2022-08-16T14:11:35.937Z,27.60
2022-08-16T14:14:05.919Z,27.70
2022-08-16T14:16:35.289Z,27.50
2022-08-16T14:19:04.270Z,27.40
2022-08-16T14:21:34.793Z,27.40
2022-08-16T14:24:12.788Z,27.40
2022-08-16T14:26:50.035Z,27.30
2022-08-16T14:31:52.387Z,27.00
2022-08-16T14:34:25.525Z,26.90
2022-08-16T14:36:54.009Z,26.80
2022-08-16T14:39:23.563Z,26.80
2022-08-16T14:41:53.649Z,26.80
2022-08-16T14:44:24.289Z,26.90
2022-08-16T14:46:55.412Z,27.00
2022-08-16T14:49:25.272Z,26.80
2022-08-16T14:52:00.677Z,26.70
2022-08-16T14:54:30.774Z,26.70
2022-08-16T14:56:59.141Z,26.80
2022-08-16T14:59:28.390Z,26.80
2022-08-16T15:02:00.496Z,26.80
2022-08-16T15:04:39.638Z,26.70
2022-08-16T15:07:11.239Z,26.70
2022-08-16T15:10:01.662Z,26.70
2022-08-16T15:12:36.011Z,26.70
2022-08-16T15:15:16.478Z,26.70
2022-08-16T15:17:54.515Z,26.60
2022-08-16T15:20:29.598Z,26.60
2022-08-16T15:23:01.442Z,26.60
2022-08-16T15:25:33.405Z,26.60
2022-08-16T15:28:05.395Z,26.60
2022-08-16T15:30:56.979Z,26.60
2022-08-16T15:33:27.308Z,26.60
2022-08-16T15:35:55.354Z,26.50
2022-08-16T15:38:57.300Z,26.40
2022-08-16T15:41:53.876Z,26.40
2022-08-16T15:44:24.695Z,26.30
2022-08-16T15:46:59.961Z,26.10
2022-08-16T15:49:37.761Z,26.00
2022-08-16T15:52:40.509Z,25.90
2022-08-16T15:55:13.155Z,25.90
2022-08-16T15:57:52.665Z,25.80
2022-08-16T16:00:22.275Z,25.70
2022-08-16T16:03:02.862Z,25.60
2022-08-16T16:05:32.516Z,25.60
2022-08-16T16:08:11.429Z,25.50
2022-08-16T16:10:43.666Z,25.50
2022-08-16T16:13:23.239Z,25.30
2022-08-16T16:15:53.959Z,25.30
2022-08-16T16:18:27.138Z,25.30
2022-08-16T16:21:20.424Z,25.20
2022-08-16T16:23:53.990Z,25.10
2022-08-16T16:26:23.050Z,25.10
2022-08-16T16:29:08.086Z,25.10
2022-08-16T16:31:40.049Z,25.10
2022-08-16T16:34:08.017Z,25.10
2022-08-16T16:36:39.861Z,25.10
2022-08-16T16:39:11.997Z,25.10
2022-08-16T16:41:42.021Z,25.00
2022-08-16T16:44:11.487Z,24.90
2022-08-16T16:46:56.480Z,24.90
2022-08-16T16:49:24.673Z,24.80
2022-08-16T16:52:06.808Z,24.80
2022-08-16T16:54:35.778Z,24.80
2022-08-16T16:57:05.757Z,24.80
2022-08-16T16:59:33.391Z,24.70
2022-08-16T17:02:46.356Z,24.70
2022-08-16T17:04:52.170Z,24.70
2022-08-16T17:07:24.058Z,24.70
2022-08-16T17:09:53.913Z,24.70
2022-08-16T17:12:24.891Z,24.60
2022-08-16T17:14:57.525Z,24.60
2022-08-16T17:17:25.829Z,24.50
2022-08-16T17:19:54.983Z,24.50
2022-08-16T17:22:23.064Z,24.40
2022-08-16T17:24:53.315Z,24.40
2022-08-16T17:27:32.353Z,24.40
2022-08-16T17:30:14.967Z,24.30
2022-08-16T17:32:54.510Z,24.20
2022-08-16T17:35:33.665Z,24.20
2022-08-16T17:38:06.197Z,24.10
2022-08-16T17:40:47.399Z,24.10
2022-08-16T17:43:34.698Z,24.10
2022-08-16T17:46:05.411Z,24.00
2022-08-16T17:48:56.353Z,23.90
2022-08-16T17:51:27.616Z,23.90
2022-08-16T17:53:55.332Z,23.90
2022-08-16T17:56:23.959Z,23.80
2022-08-16T17:58:52.905Z,23.80
2022-08-16T18:01:25.474Z,23.70
2022-08-16T18:04:06.995Z,23.70
2022-08-16T18:06:39.594Z,23.60
2022-08-16T18:09:08.782Z,23.60
2022-08-16T18:11:40.946Z,23.70
2022-08-16T18:14:11.242Z,23.60
2022-08-16T18:16:41.321Z,23.50
2022-08-16T18:19:10.726Z,23.50
2022-08-16T18:21:57.320Z,23.50
2022-08-16T18:24:29.003Z,23.40
2022-08-16T18:27:26.131Z,23.40
2022-08-16T18:29:49.979Z,23.30
2022-08-16T18:32:24.409Z,23.30
2022-08-16T18:34:54.802Z,23.30
2022-08-16T18:37:24.070Z,23.20
2022-08-16T18:39:53.197Z,23.20
2022-08-16T18:42:21.632Z,23.20
2022-08-16T18:44:49.091Z,23.10
2022-08-16T18:47:18.608Z,23.10
2022-08-16T18:49:46.168Z,23.10
2022-08-16T18:52:24.855Z,23.00
2022-08-16T18:55:01.993Z,23.00
2022-08-16T18:57:35.062Z,23.00
2022-08-16T19:00:02.808Z,23.00
2022-08-16T19:02:56.098Z,22.90
2022-08-16T19:05:25.246Z,22.90
2022-08-16T19:07:53.481Z,22.90
2022-08-16T19:10:21.622Z,22.90
2022-08-16T19:12:49.621Z,22.90
2022-08-16T19:15:23.091Z,22.80
2022-08-16T19:17:53.212Z,22.80
2022-08-16T19:20:24.863Z,22.80
2022-08-16T19:23:05.472Z,22.70
2022-08-16T19:25:47.156Z,22.70
2022-08-16T19:28:49.541Z,22.70
2022-08-16T19:31:15.688Z,22.70
2022-08-16T19:33:53.963Z,22.70
2022-08-16T19:36:37.526Z,22.70
2022-08-16T19:39:13.893Z,22.60
2022-08-16T19:41:52.039Z,22.60
2022-08-16T19:44:22.971Z,22.60
2022-08-16T19:46:51.540Z,22.60
2022-08-16T19:49:19.723Z,22.60
2022-08-16T19:51:48.686Z,22.50
2022-08-16T19:54:18.425Z,22.50
2022-08-16T19:56:46.627Z,22.50
2022-08-16T19:59:19.830Z,22.50
2022-08-16T20:01:51.114Z,22.50
2022-08-16T20:04:21.687Z,22.50
2022-08-16T20:06:52.627Z,22.50
2022-08-16T20:09:24.377Z,22.40
2022-08-16T20:11:53.204Z,22.40
2022-08-16T20:14:26.066Z,22.40
2022-08-16T20:16:58.850Z,22.40
2022-08-16T20:19:27.807Z,22.40
2022-08-16T20:21:56.610Z,22.40
2022-08-16T20:24:35.160Z,22.40
2022-08-16T20:27:07.568Z,22.40
2022-08-16T20:29:38.223Z,22.30
2022-08-16T20:32:07.299Z,22.40
2022-08-16T20:34:35.859Z,22.30
2022-08-16T20:37:06.119Z,22.30
2022-08-16T20:39:33.854Z,22.30
2022-08-16T20:42:01.449Z,22.30
2022-08-16T20:44:28.367Z,22.30
2022-08-16T20:46:55.921Z,22.30
2022-08-16T20:49:22.950Z,22.30
2022-08-16T20:51:55.831Z,22.30
2022-08-16T20:54:24.557Z,22.30
2022-08-16T20:56:55.856Z,22.30
2022-08-16T20:59:23.668Z,22.20
2022-08-16T21:01:52.911Z,22.20
2022-08-16T21:04:24.538Z,22.20
2022-08-16T21:06:54.066Z,22.20
2022-08-16T21:09:24.490Z,22.20
2022-08-16T21:11:55.107Z,22.20
2022-08-16T21:14:25.301Z,22.20
2022-08-16T21:16:55.053Z,22.20
2022-08-16T21:19:23.411Z,22.20
2022-08-16T21:21:52.576Z,22.20
2022-08-16T21:24:19.534Z,22.10
2022-08-16T21:26:55.032Z,22.20
2022-08-16T21:29:27.871Z,22.20
2022-08-16T21:32:34.640Z,22.10
2022-08-16T21:35:11.722Z,22.10
2022-08-16T21:37:40.005Z,22.10
2022-08-16T21:40:11.421Z,22.20
2022-08-16T21:42:41.996Z,22.10
2022-08-16T21:45:14.378Z,22.20
2022-08-16T21:47:43.620Z,22.10
2022-08-16T21:50:13.281Z,22.20
2022-08-16T21:52:42.521Z,22.20
2022-08-16T21:55:10.319Z,22.20
2022-08-16T21:57:39.014Z,22.20
2022-08-16T22:00:13.072Z,22.20
2022-08-16T22:02:41.469Z,22.20
2022-08-16T22:05:08.553Z,22.20
2022-08-16T22:07:35.551Z,22.20
2022-08-16T22:11:04.114Z,22.20
2022-08-16T22:12:54.712Z,22.10
2022-08-16T22:15:26.582Z,22.20
2022-08-16T22:17:58.344Z,22.10
2022-08-16T22:20:28.723Z,22.10
2022-08-16T22:23:17.165Z,22.10
2022-08-16T22:25:46.918Z,22.10
2022-08-16T22:28:15.302Z,22.10
2022-08-16T22:30:43.790Z,22.10
2022-08-16T22:33:16.901Z,22.10
2022-08-16T22:35:50.838Z,22.10
2022-08-16T22:38:54.679Z,22.10
2022-08-16T22:41:06.321Z,22.10
2022-08-16T22:43:34.037Z,22.10
2022-08-16T22:46:01.723Z,22.10
2022-08-16T22:48:30.528Z,22.10
2022-08-16T22:50:58.097Z,22.10
2022-08-16T22:53:26.973Z,22.10
2022-08-16T22:55:57.261Z,22.10
2022-08-16T22:58:34.620Z,22.10
2022-08-16T23:01:07.628Z,22.10
2022-08-16T23:03:37.803Z,22.10
2022-08-16T23:06:06.181Z,22.10
2022-08-16T23:08:39.168Z,22.00
2022-08-16T23:11:14.036Z,22.00
2022-08-16T23:13:50.692Z,22.00
2022-08-16T23:16:33.251Z,22.00
2022-08-16T23:19:08.125Z,22.00
2022-08-16T23:21:37.482Z,22.00
2022-08-16T23:24:06.564Z,22.00
2022-08-16T23:26:43.793Z,22.00
2022-08-16T23:29:22.119Z,22.00
2022-08-16T23:31:58.646Z,22.00
2022-08-16T23:34:28.417Z,21.90
2022-08-16T23:36:57.673Z,21.90
2022-08-16T23:39:25.614Z,21.90
2022-08-16T23:41:54.162Z,21.90
2022-08-16T23:44:56.046Z,21.90
2022-08-16T23:47:09.664Z,21.90
2022-08-16T23:50:01.412Z,21.90
2022-08-16T23:52:42.263Z,21.90
2022-08-16T23:55:13.477Z,21.90
2022-08-16T23:57:41.334Z,21.90
